GLO1757 SBEG-SBPV
Flight info
| Callsign | GLO1757 |
|---|---|
| Flight time | 1h 7m |
| Altitude | 36000 |
| Route | UPOMI UZ74 PVH DCT |
| Aircraft | B737/M-SDFGIKLORWXY/LB1 |
Departure
| Time | 2026-05-07 02:15 |
|---|---|
| Airport | Eduardo Gomes International Airport (SBEG) |
Arrival
| Time | 2026-05-07 03:22 |
|---|---|
| Airport | Governador Jorge Teixeira de Oliveira International Airport (SBPV) |
| Time | Latitude | Longitude | Altitude | Speed | Heading |
|---|---|---|---|---|---|
| 2026-05-07 01:39 | -3.03279 | -60.04683 | 297 ft | 0 kts | 331° |
| 2026-05-07 02:04 | -3.03279 | -60.04712 | 297 ft | 5 kts | 221° |
| 2026-05-07 02:04 | -3.03309 | -60.04732 | 297 ft | 5 kts | 213° |
| 2026-05-07 02:05 | -3.03339 | -60.04752 | 300 ft | 5 kts | 213° |
| 2026-05-07 02:05 | -3.03368 | -60.04771 | 298 ft | 5 kts | 218° |
| 2026-05-07 02:05 | -3.03389 | -60.04799 | 297 ft | 5 kts | 233° |
| 2026-05-07 02:05 | -3.03409 | -60.04827 | 306 ft | 5 kts | 233° |
| 2026-05-07 02:06 | -3.03431 | -60.04853 | 298 ft | 5 kts | 220° |
| 2026-05-07 02:06 | -3.03456 | -60.04874 | 297 ft | 5 kts | 219° |
| 2026-05-07 02:06 | -3.03482 | -60.04894 | 297 ft | 5 kts | 219° |
| 2026-05-07 02:06 | -3.03507 | -60.04914 | 299 ft | 5 kts | 219° |
| 2026-05-07 02:07 | -3.03531 | -60.04933 | 297 ft | 4 kts | 219° |
| 2026-05-07 02:07 | -3.03567 | -60.04982 | 298 ft | 4 kts | 240° |
| 2026-05-07 02:07 | -3.03579 | -60.05010 | 296 ft | 4 kts | 248° |
| 2026-05-07 02:08 | -3.03588 | -60.05039 | 296 ft | 4 kts | 255° |
| 2026-05-07 02:08 | -3.03596 | -60.05068 | 298 ft | 4 kts | 255° |
| 2026-05-07 02:08 | -3.03603 | -60.05096 | 296 ft | 4 kts | 255° |
| 2026-05-07 02:08 | -3.03611 | -60.05123 | 298 ft | 4 kts | 255° |
| 2026-05-07 02:09 | -3.03618 | -60.05150 | 296 ft | 4 kts | 255° |
| 2026-05-07 02:09 | -3.03625 | -60.05176 | 298 ft | 4 kts | 255° |
| 2026-05-07 02:09 | -3.03632 | -60.05201 | 296 ft | 4 kts | 255° |
| 2026-05-07 02:09 | -3.03639 | -60.05226 | 297 ft | 4 kts | 255° |
| 2026-05-07 02:10 | -3.03646 | -60.05250 | 295 ft | 4 kts | 255° |
| 2026-05-07 02:10 | -3.03652 | -60.05274 | 299 ft | 3 kts | 256° |
| 2026-05-07 02:10 | -3.03657 | -60.05297 | 297 ft | 3 kts | 256° |
| 2026-05-07 02:10 | -3.03663 | -60.05320 | 295 ft | 3 kts | 256° |
| 2026-05-07 02:11 | -3.03668 | -60.05342 | 298 ft | 3 kts | 256° |
| 2026-05-07 02:11 | -3.03673 | -60.05364 | 296 ft | 3 kts | 260° |
| 2026-05-07 02:11 | -3.03678 | -60.05393 | 295 ft | 5 kts | 260° |
| 2026-05-07 02:11 | -3.03683 | -60.05426 | 295 ft | 5 kts | 260° |
| 2026-05-07 02:12 | -3.03689 | -60.05482 | 295 ft | 15 kts | 268° |
| 2026-05-07 02:12 | -3.03692 | -60.05590 | 296 ft | 15 kts | 268° |
| 2026-05-07 02:12 | -3.03691 | -60.05693 | 294 ft | 15 kts | 271° |
| 2026-05-07 02:12 | -3.03689 | -60.05791 | 295 ft | 14 kts | 270° |
| 2026-05-07 02:13 | -3.03691 | -60.05885 | 294 ft | 13 kts | 269° |
| 2026-05-07 02:13 | -3.03691 | -60.05976 | 292 ft | 13 kts | 270° |
| 2026-05-07 02:13 | -3.03692 | -60.06064 | 294 ft | 13 kts | 268° |
| 2026-05-07 02:13 | -3.03712 | -60.06146 | 294 ft | 12 kts | 227° |
| 2026-05-07 02:14 | -3.03788 | -60.06174 | 292 ft | 12 kts | 179° |
| 2026-05-07 02:14 | -3.03850 | -60.06152 | 293 ft | 7 kts | 103° |
| 2026-05-07 02:14 | -3.03856 | -60.06082 | 293 ft | 28 kts | 90° |
| 2026-05-07 02:14 | -3.03857 | -60.05574 | 293 ft | 116 kts | 90° |
| 2026-05-07 02:15 | -3.03836 | -60.04526 | 388 ft | 178 kts | 89° |
| 2026-05-07 02:15 | -3.03866 | -60.03221 | 1111 ft | 194 kts | 89° |
| 2026-05-07 02:15 | -3.03877 | -60.01896 | 2203 ft | 195 kts | 88° |
| 2026-05-07 02:15 | -3.04192 | -60.00500 | 2678 ft | 227 kts | 121° |
| 2026-05-07 02:16 | -3.05500 | -59.99550 | 3349 ft | 246 kts | 160° |
| 2026-05-07 02:16 | -3.07279 | -59.99436 | 4008 ft | 272 kts | 189° |
| 2026-05-07 02:16 | -3.09023 | -60.00238 | 4942 ft | 284 kts | 218° |
| 2026-05-07 02:16 | -3.10201 | -60.01836 | 5981 ft | 289 kts | 244° |
| 2026-05-07 02:17 | -3.10990 | -60.03707 | 6927 ft | 296 kts | 247° |
| 2026-05-07 02:17 | -3.11779 | -60.05630 | 7825 ft | 301 kts | 246° |
| 2026-05-07 02:17 | -3.12622 | -60.07559 | 8799 ft | 303 kts | 244° |
| 2026-05-07 02:17 | -3.13511 | -60.09486 | 9756 ft | 307 kts | 243° |
| 2026-05-07 02:18 | -3.14434 | -60.11437 | 10527 ft | 316 kts | 243° |
| 2026-05-07 02:18 | -3.15393 | -60.13515 | 10812 ft | 342 kts | 249° |
| 2026-05-07 02:18 | -3.15843 | -60.15888 | 11428 ft | 353 kts | 265° |
| 2026-05-07 02:18 | -3.15995 | -60.18325 | 12274 ft | 355 kts | 266° |
| 2026-05-07 02:19 | -3.16147 | -60.20808 | 13133 ft | 358 kts | 266° |
| 2026-05-07 02:19 | -3.16324 | -60.23314 | 13937 ft | 362 kts | 265° |
| 2026-05-07 02:19 | -3.16519 | -60.25845 | 14642 ft | 366 kts | 265° |
| 2026-05-07 02:19 | -3.16929 | -60.28335 | 15294 ft | 371 kts | 249° |
| 2026-05-07 02:20 | -3.18217 | -60.30558 | 16003 ft | 372 kts | 227° |
| 2026-05-07 02:20 | -3.20184 | -60.32213 | 16727 ft | 371 kts | 207° |
| 2026-05-07 02:20 | -3.22495 | -60.33385 | 17439 ft | 374 kts | 204° |
| 2026-05-07 02:20 | -3.24862 | -60.34490 | 18096 ft | 378 kts | 202° |
| 2026-05-07 02:21 | -3.27274 | -60.35589 | 18694 ft | 382 kts | 202° |
| 2026-05-07 02:21 | -3.29706 | -60.36698 | 19289 ft | 385 kts | 202° |
| 2026-05-07 02:21 | -3.32151 | -60.37823 | 19879 ft | 389 kts | 202° |
| 2026-05-07 02:21 | -3.34613 | -60.38965 | 20434 ft | 393 kts | 203° |
| 2026-05-07 02:22 | -3.37111 | -60.40132 | 20975 ft | 397 kts | 203° |
| 2026-05-07 02:22 | -3.39620 | -60.41310 | 21528 ft | 400 kts | 203° |
| 2026-05-07 02:22 | -3.42157 | -60.42505 | 22094 ft | 404 kts | 203° |
| 2026-05-07 02:22 | -3.44672 | -60.43692 | 22629 ft | 406 kts | 203° |
| 2026-05-07 02:23 | -3.47242 | -60.44905 | 23164 ft | 410 kts | 203° |
| 2026-05-07 02:23 | -3.49827 | -60.46126 | 23655 ft | 413 kts | 203° |
| 2026-05-07 02:23 | -3.52435 | -60.47357 | 24108 ft | 415 kts | 203° |
| 2026-05-07 02:23 | -3.55052 | -60.48594 | 24539 ft | 417 kts | 203° |
| 2026-05-07 02:24 | -3.57682 | -60.49835 | 24966 ft | 419 kts | 203° |
| 2026-05-07 02:24 | -3.60332 | -60.51087 | 25379 ft | 422 kts | 203° |
| 2026-05-07 02:24 | -3.62993 | -60.52344 | 25783 ft | 425 kts | 203° |
| 2026-05-07 02:24 | -3.65672 | -60.53609 | 26176 ft | 427 kts | 204° |
| 2026-05-07 02:25 | -3.68371 | -60.54884 | 26570 ft | 430 kts | 204° |
| 2026-05-07 02:25 | -3.71091 | -60.56169 | 26965 ft | 433 kts | 204° |
| 2026-05-07 02:25 | -3.73823 | -60.57459 | 27352 ft | 435 kts | 204° |
| 2026-05-07 02:25 | -3.75645 | -60.58320 | 27605 ft | 437 kts | 204° |
| 2026-05-07 02:26 | -3.78404 | -60.59623 | 27987 ft | 440 kts | 204° |
| 2026-05-07 02:26 | -3.81179 | -60.60934 | 28360 ft | 442 kts | 204° |
| 2026-05-07 02:26 | -3.84886 | -60.62686 | 28841 ft | 446 kts | 204° |
| 2026-05-07 02:26 | -3.86781 | -60.63582 | 29092 ft | 448 kts | 204° |
| 2026-05-07 02:27 | -3.89603 | -60.64915 | 29428 ft | 450 kts | 204° |
| 2026-05-07 02:27 | -3.92452 | -60.66262 | 29770 ft | 453 kts | 204° |
| 2026-05-07 02:27 | -3.95308 | -60.67612 | 30103 ft | 455 kts | 204° |
| 2026-05-07 02:27 | -3.98158 | -60.68959 | 30383 ft | 457 kts | 204° |
| 2026-05-07 02:28 | -4.01039 | -60.70321 | 30670 ft | 459 kts | 203° |
| 2026-05-07 02:28 | -4.03940 | -60.71692 | 30946 ft | 462 kts | 203° |
| 2026-05-07 02:28 | -4.06846 | -60.73066 | 31227 ft | 463 kts | 203° |
| 2026-05-07 02:28 | -4.09772 | -60.74450 | 31504 ft | 465 kts | 203° |
| 2026-05-07 02:29 | -4.12702 | -60.75835 | 31789 ft | 467 kts | 204° |
| 2026-05-07 02:29 | -4.15649 | -60.77229 | 32063 ft | 468 kts | 204° |
| 2026-05-07 02:29 | -4.18595 | -60.78622 | 32387 ft | 468 kts | 204° |
| 2026-05-07 02:29 | -4.21538 | -60.80015 | 32794 ft | 467 kts | 204° |
| 2026-05-07 02:30 | -4.24463 | -60.81399 | 33227 ft | 464 kts | 204° |
| 2026-05-07 02:30 | -4.27382 | -60.82780 | 33647 ft | 463 kts | 204° |
| 2026-05-07 02:30 | -4.30295 | -60.84158 | 34032 ft | 462 kts | 204° |
| 2026-05-07 02:30 | -4.33201 | -60.85533 | 34364 ft | 461 kts | 204° |
| 2026-05-07 02:31 | -4.36106 | -60.86908 | 34678 ft | 461 kts | 204° |
| 2026-05-07 02:31 | -4.39011 | -60.88283 | 34974 ft | 461 kts | 204° |
| 2026-05-07 02:31 | -4.41905 | -60.89653 | 35297 ft | 460 kts | 204° |
| 2026-05-07 02:31 | -4.44790 | -60.91019 | 35606 ft | 458 kts | 204° |
| 2026-05-07 02:32 | -4.47675 | -60.92384 | 35904 ft | 458 kts | 204° |
| 2026-05-07 02:32 | -4.50460 | -60.93861 | 36018 ft | 463 kts | 215° |
| 2026-05-07 02:32 | -4.55326 | -60.98141 | 36034 ft | 467 kts | 222° |
| 2026-05-07 02:33 | -4.60040 | -61.02543 | 36024 ft | 459 kts | 222° |
| 2026-05-07 02:33 | -4.64744 | -61.06858 | 36047 ft | 458 kts | 221° |
| 2026-05-07 02:34 | -4.69473 | -61.11136 | 36037 ft | 458 kts | 221° |
| 2026-05-07 02:34 | -4.74209 | -61.15405 | 36037 ft | 458 kts | 221° |
| 2026-05-07 02:35 | -4.78950 | -61.19679 | 36036 ft | 458 kts | 221° |
| 2026-05-07 02:35 | -4.83691 | -61.23958 | 36035 ft | 458 kts | 221° |
| 2026-05-07 02:36 | -4.88399 | -61.28208 | 36034 ft | 458 kts | 221° |
| 2026-05-07 02:36 | -4.93139 | -61.32490 | 36034 ft | 459 kts | 221° |
| 2026-05-07 02:37 | -4.97887 | -61.36779 | 36042 ft | 459 kts | 221° |
| 2026-05-07 02:37 | -5.02632 | -61.41065 | 36040 ft | 459 kts | 221° |
| 2026-05-07 02:38 | -5.07378 | -61.45354 | 36034 ft | 459 kts | 221° |
| 2026-05-07 02:38 | -5.12120 | -61.49640 | 36035 ft | 459 kts | 221° |
| 2026-05-07 02:39 | -5.17112 | -61.53597 | 36034 ft | 454 kts | 213° |
| 2026-05-07 02:39 | -5.22356 | -61.57005 | 36025 ft | 446 kts | 212° |
| 2026-05-07 02:40 | -5.27531 | -61.60369 | 36038 ft | 446 kts | 213° |
| 2026-05-07 02:40 | -5.32690 | -61.63819 | 36033 ft | 446 kts | 213° |
| 2026-05-07 02:41 | -5.37836 | -61.67298 | 36019 ft | 446 kts | 213° |
| 2026-05-07 02:41 | -5.42989 | -61.70787 | 36038 ft | 446 kts | 213° |
| 2026-05-07 02:42 | -5.48146 | -61.74275 | 36036 ft | 447 kts | 213° |
| 2026-05-07 02:42 | -5.53309 | -61.77768 | 36035 ft | 448 kts | 213° |
| 2026-05-07 02:43 | -5.58477 | -61.81265 | 36036 ft | 448 kts | 213° |
| 2026-05-07 02:43 | -5.63674 | -61.84749 | 36034 ft | 449 kts | 213° |
| 2026-05-07 02:44 | -5.68870 | -61.88167 | 36027 ft | 449 kts | 213° |
| 2026-05-07 02:44 | -5.74102 | -61.91604 | 36029 ft | 450 kts | 213° |
| 2026-05-07 02:45 | -5.79332 | -61.95051 | 36036 ft | 449 kts | 213° |
| 2026-05-07 02:45 | -5.84557 | -61.98500 | 36024 ft | 449 kts | 213° |
| 2026-05-07 02:46 | -5.89768 | -62.01941 | 36025 ft | 447 kts | 213° |
| 2026-05-07 02:46 | -5.94959 | -62.05370 | 36034 ft | 446 kts | 213° |
| 2026-05-07 02:47 | -6.00146 | -62.08796 | 36021 ft | 445 kts | 213° |
| 2026-05-07 02:47 | -6.05319 | -62.12214 | 36017 ft | 444 kts | 213° |
| 2026-05-07 02:48 | -6.10438 | -62.15597 | 36029 ft | 443 kts | 213° |
| 2026-05-07 02:48 | -6.15589 | -62.19002 | 36028 ft | 442 kts | 213° |
| 2026-05-07 02:49 | -6.20718 | -62.22394 | 36015 ft | 441 kts | 213° |
| 2026-05-07 02:49 | -6.25851 | -62.25789 | 36017 ft | 441 kts | 214° |
| 2026-05-07 02:50 | -6.30977 | -62.29180 | 36030 ft | 441 kts | 214° |
| 2026-05-07 02:50 | -6.36102 | -62.32571 | 36029 ft | 441 kts | 214° |
| 2026-05-07 02:51 | -6.41220 | -62.35959 | 36023 ft | 441 kts | 214° |
| 2026-05-07 02:51 | -6.46350 | -62.39356 | 36030 ft | 441 kts | 214° |
| 2026-05-07 02:52 | -6.51482 | -62.42755 | 36021 ft | 442 kts | 214° |
| 2026-05-07 02:52 | -6.56576 | -62.46156 | 36021 ft | 442 kts | 214° |
| 2026-05-07 02:53 | -6.61696 | -62.49602 | 36022 ft | 443 kts | 214° |
| 2026-05-07 02:53 | -6.66822 | -62.53051 | 36021 ft | 444 kts | 214° |
| 2026-05-07 02:54 | -6.71959 | -62.56505 | 36009 ft | 444 kts | 214° |
| 2026-05-07 02:54 | -6.77101 | -62.59962 | 36020 ft | 444 kts | 214° |
| 2026-05-07 02:55 | -6.82246 | -62.63422 | 36024 ft | 445 kts | 214° |
| 2026-05-07 02:55 | -6.87392 | -62.66884 | 36010 ft | 445 kts | 214° |
| 2026-05-07 02:56 | -6.92525 | -62.70338 | 35562 ft | 451 kts | 214° |
| 2026-05-07 02:56 | -6.95123 | -62.72085 | 35172 ft | 447 kts | 213° |
| 2026-05-07 02:56 | -6.97710 | -62.73813 | 34662 ft | 445 kts | 213° |
| 2026-05-07 02:57 | -7.00277 | -62.75522 | 34205 ft | 442 kts | 213° |
| 2026-05-07 02:57 | -7.02836 | -62.77224 | 33719 ft | 439 kts | 213° |
| 2026-05-07 02:57 | -7.05379 | -62.78916 | 33243 ft | 436 kts | 213° |
| 2026-05-07 02:57 | -7.07896 | -62.80592 | 32796 ft | 432 kts | 213° |
| 2026-05-07 02:58 | -7.10393 | -62.82255 | 32349 ft | 429 kts | 212° |
| 2026-05-07 02:58 | -7.12871 | -62.83907 | 31915 ft | 425 kts | 212° |
| 2026-05-07 02:58 | -7.15332 | -62.85549 | 31486 ft | 422 kts | 212° |
| 2026-05-07 02:58 | -7.17764 | -62.87171 | 31067 ft | 420 kts | 212° |
| 2026-05-07 02:59 | -7.20198 | -62.88795 | 30627 ft | 418 kts | 212° |
| 2026-05-07 02:59 | -7.22582 | -62.90386 | 30214 ft | 415 kts | 212° |
| 2026-05-07 02:59 | -7.24992 | -62.91994 | 29737 ft | 413 kts | 212° |
| 2026-05-07 02:59 | -7.27376 | -62.93585 | 29263 ft | 409 kts | 212° |
| 2026-05-07 03:00 | -7.29740 | -62.95163 | 28807 ft | 406 kts | 212° |
| 2026-05-07 03:00 | -7.32079 | -62.96725 | 28358 ft | 402 kts | 212° |
| 2026-05-07 03:00 | -7.34402 | -62.98276 | 27916 ft | 399 kts | 212° |
| 2026-05-07 03:00 | -7.36708 | -62.99816 | 27476 ft | 396 kts | 212° |
| 2026-05-07 03:01 | -7.38995 | -63.01343 | 27048 ft | 393 kts | 212° |
| 2026-05-07 03:01 | -7.41266 | -63.02860 | 26624 ft | 390 kts | 212° |
| 2026-05-07 03:01 | -7.43521 | -63.04367 | 26179 ft | 388 kts | 212° |
| 2026-05-07 03:01 | -7.45769 | -63.05869 | 25733 ft | 387 kts | 212° |
| 2026-05-07 03:02 | -7.48003 | -63.07361 | 25300 ft | 385 kts | 212° |
| 2026-05-07 03:02 | -7.50206 | -63.08833 | 24868 ft | 384 kts | 212° |
| 2026-05-07 03:02 | -7.52430 | -63.10319 | 24373 ft | 384 kts | 212° |
| 2026-05-07 03:02 | -7.54675 | -63.11820 | 23808 ft | 388 kts | 212° |
| 2026-05-07 03:03 | -7.56925 | -63.13324 | 23257 ft | 388 kts | 212° |
| 2026-05-07 03:03 | -7.59176 | -63.14831 | 22772 ft | 385 kts | 212° |
| 2026-05-07 03:03 | -7.61403 | -63.16322 | 22311 ft | 382 kts | 211° |
| 2026-05-07 03:03 | -7.63616 | -63.17804 | 21864 ft | 379 kts | 211° |
| 2026-05-07 03:04 | -7.65805 | -63.19270 | 21423 ft | 377 kts | 211° |
| 2026-05-07 03:04 | -7.67956 | -63.20710 | 20989 ft | 374 kts | 211° |
| 2026-05-07 03:04 | -7.70142 | -63.22174 | 20549 ft | 372 kts | 211° |
| 2026-05-07 03:04 | -7.72264 | -63.23595 | 20110 ft | 370 kts | 211° |
| 2026-05-07 03:05 | -7.74404 | -63.25028 | 19663 ft | 369 kts | 211° |
| 2026-05-07 03:05 | -7.76535 | -63.26455 | 19226 ft | 367 kts | 211° |
| 2026-05-07 03:05 | -7.78658 | -63.27878 | 18787 ft | 366 kts | 211° |
| 2026-05-07 03:05 | -7.80775 | -63.29297 | 18340 ft | 365 kts | 211° |
| 2026-05-07 03:06 | -7.82887 | -63.30712 | 17862 ft | 364 kts | 211° |
| 2026-05-07 03:06 | -7.84987 | -63.32119 | 17412 ft | 361 kts | 211° |
| 2026-05-07 03:06 | -7.87070 | -63.33515 | 16931 ft | 359 kts | 211° |
| 2026-05-07 03:06 | -7.89144 | -63.34906 | 16475 ft | 357 kts | 211° |
| 2026-05-07 03:07 | -7.91208 | -63.36291 | 16046 ft | 354 kts | 211° |
| 2026-05-07 03:07 | -7.93248 | -63.37659 | 15616 ft | 351 kts | 211° |
| 2026-05-07 03:07 | -7.95267 | -63.39015 | 15204 ft | 348 kts | 212° |
| 2026-05-07 03:07 | -7.97275 | -63.40363 | 14768 ft | 346 kts | 212° |
| 2026-05-07 03:08 | -7.99245 | -63.41685 | 14361 ft | 343 kts | 212° |
| 2026-05-07 03:08 | -8.01251 | -63.43032 | 13923 ft | 341 kts | 212° |
| 2026-05-07 03:08 | -8.03192 | -63.44336 | 13476 ft | 339 kts | 212° |
| 2026-05-07 03:08 | -8.05147 | -63.45649 | 13038 ft | 335 kts | 212° |
| 2026-05-07 03:09 | -8.07079 | -63.46947 | 12611 ft | 332 kts | 212° |
| 2026-05-07 03:09 | -8.08992 | -63.48232 | 12195 ft | 329 kts | 212° |
| 2026-05-07 03:09 | -8.10894 | -63.49510 | 11779 ft | 326 kts | 212° |
| 2026-05-07 03:09 | -8.12773 | -63.50773 | 11383 ft | 323 kts | 212° |
| 2026-05-07 03:10 | -8.14642 | -63.52029 | 10978 ft | 321 kts | 212° |
| 2026-05-07 03:10 | -8.16489 | -63.53270 | 10575 ft | 318 kts | 212° |
| 2026-05-07 03:10 | -8.18327 | -63.54506 | 10196 ft | 315 kts | 212° |
| 2026-05-07 03:10 | -8.20119 | -63.55712 | 10040 ft | 305 kts | 212° |
| 2026-05-07 03:11 | -8.21856 | -63.56880 | 9929 ft | 292 kts | 212° |
| 2026-05-07 03:11 | -8.23559 | -63.58024 | 9370 ft | 297 kts | 212° |
| 2026-05-07 03:11 | -8.25268 | -63.59194 | 8946 ft | 297 kts | 217° |
| 2026-05-07 03:11 | -8.26585 | -63.60770 | 8640 ft | 294 kts | 239° |
| 2026-05-07 03:12 | -8.27571 | -63.62565 | 8296 ft | 291 kts | 241° |
| 2026-05-07 03:12 | -8.28514 | -63.64365 | 7948 ft | 289 kts | 242° |
| 2026-05-07 03:12 | -8.29447 | -63.66158 | 7592 ft | 288 kts | 242° |
| 2026-05-07 03:12 | -8.30385 | -63.67950 | 7219 ft | 287 kts | 242° |
| 2026-05-07 03:13 | -8.31309 | -63.69706 | 6879 ft | 286 kts | 242° |
| 2026-05-07 03:13 | -8.32246 | -63.71479 | 6516 ft | 286 kts | 242° |
| 2026-05-07 03:13 | -8.33186 | -63.73251 | 6154 ft | 285 kts | 242° |
| 2026-05-07 03:13 | -8.34123 | -63.75015 | 5790 ft | 284 kts | 242° |
| 2026-05-07 03:14 | -8.35056 | -63.76770 | 5427 ft | 283 kts | 242° |
| 2026-05-07 03:14 | -8.35987 | -63.78519 | 5069 ft | 282 kts | 242° |
| 2026-05-07 03:14 | -8.37524 | -63.81409 | 4477 ft | 280 kts | 243° |
| 2026-05-07 03:15 | -8.38444 | -63.83138 | 4127 ft | 278 kts | 243° |
| 2026-05-07 03:15 | -8.39666 | -63.85434 | 3679 ft | 276 kts | 243° |
| 2026-05-07 03:15 | -8.40268 | -63.86565 | 3454 ft | 275 kts | 243° |
| 2026-05-07 03:15 | -8.41168 | -63.88255 | 3248 ft | 268 kts | 243° |
| 2026-05-07 03:16 | -8.42040 | -63.89885 | 3110 ft | 259 kts | 241° |
| 2026-05-07 03:16 | -8.43230 | -63.91181 | 3010 ft | 248 kts | 210° |
| 2026-05-07 03:16 | -8.44805 | -63.91734 | 2841 ft | 235 kts | 186° |
| 2026-05-07 03:16 | -8.46367 | -63.91745 | 2668 ft | 215 kts | 176° |
| 2026-05-07 03:17 | -8.47792 | -63.91648 | 2500 ft | 196 kts | 175° |
| 2026-05-07 03:17 | -8.49085 | -63.91557 | 2394 ft | 176 kts | 176° |
| 2026-05-07 03:17 | -8.50225 | -63.91482 | 2273 ft | 157 kts | 176° |
| 2026-05-07 03:17 | -8.51290 | -63.91414 | 2159 ft | 151 kts | 176° |
| 2026-05-07 03:18 | -8.52350 | -63.91348 | 2065 ft | 153 kts | 176° |
| 2026-05-07 03:18 | -8.53411 | -63.91281 | 2017 ft | 153 kts | 176° |
| 2026-05-07 03:18 | -8.54480 | -63.91215 | 1989 ft | 154 kts | 176° |
| 2026-05-07 03:18 | -8.55550 | -63.91149 | 1966 ft | 154 kts | 176° |
| 2026-05-07 03:19 | -8.56621 | -63.91084 | 1949 ft | 154 kts | 176° |
| 2026-05-07 03:19 | -8.57694 | -63.91020 | 1937 ft | 155 kts | 176° |
| 2026-05-07 03:19 | -8.58767 | -63.90956 | 1928 ft | 154 kts | 176° |
| 2026-05-07 03:19 | -8.59834 | -63.90892 | 1920 ft | 154 kts | 176° |
| 2026-05-07 03:20 | -8.60908 | -63.90828 | 1908 ft | 155 kts | 176° |
| 2026-05-07 03:20 | -8.62001 | -63.90763 | 1737 ft | 157 kts | 176° |
| 2026-05-07 03:20 | -8.63062 | -63.90699 | 1576 ft | 154 kts | 176° |
| 2026-05-07 03:20 | -8.64117 | -63.90636 | 1386 ft | 151 kts | 176° |
| 2026-05-07 03:21 | -8.65165 | -63.90574 | 1204 ft | 150 kts | 177° |
| 2026-05-07 03:21 | -8.66193 | -63.90513 | 1023 ft | 147 kts | 176° |
| 2026-05-07 03:21 | -8.67211 | -63.90452 | 831 ft | 145 kts | 176° |
| 2026-05-07 03:21 | -8.68214 | -63.90393 | 654 ft | 143 kts | 176° |
| 2026-05-07 03:22 | -8.69197 | -63.90337 | 461 ft | 140 kts | 175° |
| 2026-05-07 03:22 | -8.70168 | -63.90271 | 311 ft | 137 kts | 175° |
| 2026-05-07 03:22 | -8.70993 | -63.90225 | 299 ft | 91 kts | 177° |
| 2026-05-07 03:22 | -8.71355 | -63.90207 | 298 ft | 17 kts | 181° |
| 2026-05-07 03:23 | -8.71417 | -63.90173 | 298 ft | 8 kts | 100° |
| 2026-05-07 03:23 | -8.71419 | -63.90121 | 298 ft | 7 kts | 87° |
| 2026-05-07 03:23 | -8.71420 | -63.90081 | 300 ft | 0 kts | 100° |
| 2026-05-07 03:26 | -8.71420 | -63.90080 | 299 ft | 1 kts | 100° |
| 2026-05-07 03:27 | -8.71421 | -63.90073 | 298 ft | 1 kts | 100° |
| 2026-05-07 03:27 | -8.71423 | -63.90064 | 301 ft | 1 kts | 100° |
| 2026-05-07 03:27 | -8.71424 | -63.90057 | 299 ft | 1 kts | 100° |
| 2026-05-07 03:27 | -8.71428 | -63.90030 | 299 ft | 6 kts | 96° |
| 2026-05-07 03:28 | -8.71428 | -63.89990 | 299 ft | 6 kts | 85° |
| 2026-05-07 03:28 | -8.71424 | -63.89951 | 297 ft | 6 kts | 91° |
| 2026-05-07 03:28 | -8.71425 | -63.89929 | 297 ft | 0 kts | 89° |